Time;durP1;ratioP1;P1;durP2;ratioP2;P2;SDS_P1;SDS_P2;PMS_P1;PMS_P2;Temp;Humidity;BMP_temperature;BMP_pressure;BME280_temperature;BME280_humidity;BME280_pressure;Samples;Min_cycle;Max_cycle;Signal;HPM_P1;HPM_P2
2023/06/06 00:01:41;;;;;;;9.80;5.00;;;;;;;8.28;100.00;100934.04;105277;1257;75272;-62
2023/06/06 00:04:08;;;;;;;7.60;4.70;;;;;;;8.23;100.00;100934.42;105147;1262;67322;-62
2023/06/06 00:06:37;;;;;;;9.00;4.30;;;;;;;8.17;100.00;100932.92;105046;1261;72732;-62
2023/06/06 00:09:05;;;;;;;10.40;4.50;;;;;;;8.13;100.00;100937.33;105230;1260;61337;-63
2023/06/06 00:11:32;;;;;;;6.70;3.70;;;;;;;8.13;100.00;100942.16;105389;1260;61205;-65
2023/06/06 00:13:59;;;;;;;6.20;3.60;;;;;;;8.17;100.00;100948.01;104902;1260;73996;-63
2023/06/06 00:16:27;;;;;;;5.10;3.10;;;;;;;8.22;100.00;100948.30;105138;1261;66706;-62
2023/06/06 00:18:55;;;;;;;8.40;3.20;;;;;;;8.29;100.00;100950.53;105330;1256;71453;-63
2023/06/06 00:21:22;;;;;;;8.50;4.00;;;;;;;8.35;100.00;100949.52;105987;1259;61846;-74
2023/06/06 00:23:49;;;;;;;8.40;4.70;;;;;;;8.38;100.00;100952.21;105233;1260;63081;-74
2023/06/06 00:26:17;;;;;;;7.00;3.90;;;;;;;8.36;100.00;100950.41;105135;1256;73233;-62
2023/06/06 00:28:47;;;;;;;9.60;3.70;;;;;;;8.34;100.00;100949.98;105206;1260;67202;-64
2023/06/06 00:31:14;;;;;;;5.30;3.10;;;;;;;8.32;100.00;100951.55;105160;1261;72523;-63
2023/06/06 00:33:42;;;;;;;8.70;3.80;;;;;;;8.28;100.00;100954.81;105529;1260;61219;-69
2023/06/06 00:36:09;;;;;;;7.20;4.20;;;;;;;8.22;100.00;100956.09;105092;1262;61259;-62
2023/06/06 00:38:37;;;;;;;7.30;4.00;;;;;;;8.14;100.00;100955.70;105742;1260;74108;-64
2023/06/06 00:41:03;;;;;;;5.70;3.60;;;;;;;8.08;100.00;100959.09;105352;1257;67112;-62
2023/06/06 00:43:31;;;;;;;6.60;3.50;;;;;;;8.04;100.00;100965.27;105921;1260;72559;-75
2023/06/06 00:45:58;;;;;;;5.90;3.70;;;;;;;8.04;100.00;100968.02;105221;1261;61268;-78
2023/06/06 00:48:25;;;;;;;7.20;4.30;;;;;;;8.05;100.00;100972.11;105102;1260;61244;-65
2023/06/06 00:50:52;;;;;;;6.70;3.60;;;;;;;8.04;100.00;100976.05;104969;1261;74756;-66
2023/06/06 00:53:20;;;;;;;6.10;3.70;;;;;;;7.99;100.00;100976.67;105221;1257;66269;-63
2023/06/06 00:55:47;;;;;;;9.30;4.50;;;;;;;7.91;100.00;100978.52;105193;1261;308379;-66
2023/06/06 00:58:15;;;;;;;7.00;4.20;;;;;;;7.83;100.00;100983.25;105767;1257;61139;-64
2023/06/06 01:00:43;;;;;;;8.10;4.60;;;;;;;7.76;100.00;100987.22;105013;1262;61265;-63
2023/06/06 01:03:10;;;;;;;9.70;4.40;;;;;;;7.72;100.00;100988.30;105196;1258;75369;-64
2023/06/06 01:05:38;;;;;;;7.50;3.80;;;;;;;7.70;100.00;100987.33;105020;1258;66302;-68
2023/06/06 01:08:06;;;;;;;5.60;3.70;;;;;;;7.70;100.00;100991.29;105429;1259;71948;-70
2023/06/06 01:10:37;;;;;;;8.10;3.80;;;;;;;7.68;100.00;100993.84;105361;1261;61233;-66
2023/06/06 01:13:18;;;;;;;6.90;3.40;;;;;;;7.67;100.00;100997.12;105485;1260;61690;-72
2023/06/06 01:15:47;;;;;;;;;;;;;;;7.62;100.00;100998.59;105364;1260;73915;-79
2023/06/06 01:18:14;;;;;;;6.90;3.90;;;;;;;7.58;100.00;100996.05;105143;1261;65948;-65
2023/06/06 01:20:41;;;;;;;8.40;4.10;;;;;;;7.55;100.00;100994.95;105784;1257;72338;-64
2023/06/06 01:23:10;;;;;;;7.40;3.90;;;;;;;7.51;100.00;100997.77;105301;1258;61550;-64
2023/06/06 01:25:40;;;;;;;6.30;3.80;;;;;;;7.47;100.00;101000.72;105454;1257;61215;-77
2023/06/06 01:28:12;;;;;;;6.70;3.50;;;;;;;7.44;100.00;100998.61;104876;1260;73217;-67
2023/06/06 01:30:40;;;;;;;8.50;3.40;;;;;;;7.44;100.00;100997.34;105241;1260;66102;-65
2023/06/06 01:33:40;;;;;;;6.00;2.90;;;;;;;7.47;100.00;100997.89;105037;1261;72112;-67
2023/06/06 01:36:07;;;;;;;9.90;4.10;;;;;;;7.57;100.00;101004.95;105200;1260;61254;-68
2023/06/06 01:38:38;;;;;;;7.00;4.30;;;;;;;7.64;100.00;101007.27;105127;1257;61232;-67
2023/06/06 01:41:05;;;;;;;7.30;3.50;;;;;;;7.66;100.00;101013.14;105530;1258;74726;-71
2023/06/06 01:43:32;;;;;;;7.00;4.00;;;;;;;7.66;100.00;101013.30;104862;1256;67495;-64
2023/06/06 01:45:59;;;;;;;6.70;4.10;;;;;;;7.65;100.00;101017.16;105002;1263;72700;-63
2023/06/06 01:48:26;;;;;;;6.90;3.80;;;;;;;7.64;100.00;101012.45;104997;1258;61711;-64
2023/06/06 01:50:54;;;;;;;7.30;3.80;;;;;;;7.64;100.00;101015.08;104917;1258;61305;-64
2023/06/06 01:53:21;;;;;;;7.50;3.90;;;;;;;7.66;100.00;101019.55;104930;1263;74919;-64
2023/06/06 01:55:48;;;;;;;5.10;3.50;;;;;;;7.77;100.00;101021.88;105103;1256;67180;-64
2023/06/06 01:58:17;;;;;;;6.90;3.90;;;;;;;8.09;100.00;101026.16;105034;1263;71212;-65
2023/06/06 02:00:44;;;;;;;5.20;3.50;;;;;;;8.53;100.00;101031.02;104923;1264;61754;-64
2023/06/06 02:03:11;;;;;;;8.70;3.80;;;;;;;9.02;100.00;101032.81;105275;1261;61353;-77
2023/06/06 02:05:38;;;;;;;6.30;3.90;;;;;;;9.53;100.00;101037.16;104736;1264;74405;-65
2023/06/06 02:08:06;;;;;;;5.80;3.90;;;;;;;10.06;100.00;101038.79;105126;1257;67109;-66
2023/06/06 02:10:34;;;;;;;8.60;4.70;;;;;;;10.59;100.00;101036.85;104954;1257;71781;-66
2023/06/06 02:13:01;;;;;;;5.80;4.00;;;;;;;11.15;100.00;101031.19;105499;1259;61131;-67
2023/06/06 02:15:29;;;;;;;9.10;4.50;;;;;;;11.68;100.00;101026.12;105433;1257;61235;-65
2023/06/06 02:17:56;;;;;;;6.50;3.30;;;;;;;12.25;100.00;101019.80;104990;1257;72442;-65
2023/06/06 02:20:26;;;;;;;8.70;4.50;;;;;;;12.84;100.00;101012.75;105045;1260;66362;-66
2023/06/06 02:22:53;;;;;;;7.50;4.10;;;;;;;13.45;100.00;101003.84;105213;1260;70290;-67
2023/06/06 02:25:23;;;;;;;7.80;4.10;;;;;;;14.07;100.00;101004.53;105478;1257;61605;-67
2023/06/06 02:27:51;;;;;;;7.10;4.40;;;;;;;14.66;100.00;100997.41;105666;1258;61222;-63
2023/06/06 02:30:18;;;;;;;6.10;4.40;;;;;;;15.23;100.00;100998.47;105077;1257;72806;-63
2023/06/06 02:32:46;;;;;;;7.50;4.40;;;;;;;15.73;100.00;100990.20;105116;1262;65945;-64
2023/06/06 02:35:16;;;;;;;5.90;3.60;;;;;;;16.25;100.00;100987.94;105687;1260;72555;-74
2023/06/06 02:37:44;;;;;;;6.50;4.10;;;;;;;16.79;100.00;100986.89;105472;1260;61347;-65
2023/06/06 02:40:13;;;;;;;5.30;3.50;;;;;;;17.36;100.00;100990.00;105011;1262;61627;-64
2023/06/06 02:42:41;;;;;;;6.60;3.80;;;;;;;17.96;100.00;100989.33;105219;1258;73085;-77
2023/06/06 02:45:09;;;;;;;6.40;3.80;;;;;;;18.47;100.00;100987.27;105490;1261;67355;-67
2023/06/06 02:47:36;;;;;;;8.20;4.50;;;;;;;19.02;100.00;100983.98;105001;1258;73225;-66
2023/06/06 02:50:05;;;;;;;8.30;4.50;;;;;;;19.55;100.00;100982.58;105128;1260;61167;-65
2023/06/06 02:52:32;;;;;;;8.40;4.20;;;;;;;19.97;100.00;100984.05;105191;1260;61349;-69
2023/06/06 02:55:00;;;;;;;7.90;5.10;;;;;;;20.33;100.00;100985.69;105586;1258;74569;-65
2023/06/06 02:57:27;;;;;;;6.50;3.90;;;;;;;20.72;100.00;100980.02;105458;1260;65739;-67
2023/06/06 02:59:55;;;;;;;7.30;4.50;;;;;;;21.22;100.00;100976.11;105088;1260;73188;-67
2023/06/06 03:02:22;;;;;;;10.70;4.70;;;;;;;21.74;97.19;100976.28;105289;1261;61574;-76
2023/06/06 03:04:49;;;;;;;7.90;4.40;;;;;;;22.20;88.95;100973.80;105696;1260;61254;-66
2023/06/06 03:07:18;;;;;;;6.20;4.10;;;;;;;22.76;83.65;100973.85;105417;1257;73927;-64
2023/06/06 03:09:45;;;;;;;8.90;4.40;;;;;;;23.44;75.99;100978.77;104932;1261;67758;-66
2023/06/06 03:12:15;;;;;;;7.10;4.80;;;;;;;24.01;69.39;100975.83;104948;1262;71223;-65
2023/06/06 03:14:43;;;;;;;10.30;4.90;;;;;;;24.40;62.88;100981.71;105156;1261;62171;-66
2023/06/06 03:17:22;;;;;;;7.40;4.70;;;;;;;24.71;59.09;100985.41;105399;1256;61540;-78
2023/06/06 03:19:49;;;;;;;6.40;4.60;;;;;;;25.15;55.32;100984.43;104909;1257;73447;-65
2023/06/06 03:22:17;;;;;;;7.20;4.60;;;;;;;25.57;50.99;100987.77;105236;1257;66956;-75
2023/06/06 03:24:49;;;;;;;8.50;4.90;;;;;;;26.00;47.36;100990.84;105728;1261;72144;-66
2023/06/06 03:27:16;;;;;;;7.30;4.80;;;;;;;26.42;44.07;100997.15;105239;1257;61338;-66
2023/06/06 03:29:44;;;;;;;5.50;4.40;;;;;;;26.76;41.88;100993.54;105194;1257;61327;-66
2023/06/06 03:32:12;;;;;;;9.20;4.70;;;;;;;26.97;40.86;100995.60;104933;1262;74677;-71
2023/06/06 03:34:42;;;;;;;6.60;4.30;;;;;;;27.24;39.81;100997.59;105433;1258;67735;-65
2023/06/06 03:37:11;;;;;;;8.70;4.40;;;;;;;27.60;38.56;100999.40;105408;1256;72109;-66
2023/06/06 03:39:39;;;;;;;6.00;4.00;;;;;;;28.01;37.58;100999.21;105352;1257;61398;-75
2023/06/06 03:42:07;;;;;;;5.50;4.20;;;;;;;28.46;36.75;100994.33;105236;1262;61254;-68
2023/06/06 03:44:35;;;;;;;7.00;3.80;;;;;;;28.93;35.59;100994.98;105436;1257;74387;-65
2023/06/06 03:47:02;;;;;;;7.40;3.80;;;;;;;29.33;34.85;100992.58;105088;1263;67093;-66
2023/06/06 03:49:35;;;;;;;7.60;3.80;;;;;;;29.75;33.73;100992.23;105152;1257;72497;-66
2023/06/06 03:52:04;;;;;;;8.20;4.20;;;;;;;29.98;32.87;100989.25;105133;1257;61270;-67
2023/06/06 03:54:32;;;;;;;6.60;3.50;;;;;;;30.20;32.19;100987.77;105342;1257;61154;-67
2023/06/06 03:56:59;;;;;;;5.60;3.30;;;;;;;30.45;31.96;100993.33;105293;1257;74757;-65
2023/06/06 03:59:27;;;;;;;5.50;3.80;;;;;;;30.58;31.37;100992.17;104941;1256;67218;-65
2023/06/06 04:01:54;;;;;;;5.50;3.70;;;;;;;30.78;30.73;100990.08;104932;1257;73185;-66
2023/06/06 04:04:24;;;;;;;6.50;3.50;;;;;;;31.03;30.58;100988.30;105244;1257;61173;-66
2023/06/06 04:06:51;;;;;;;5.70;3.90;;;;;;;31.39;30.21;100989.55;105161;1257;61226;-65
2023/06/06 04:09:18;;;;;;;7.70;3.30;;;;;;;31.78;29.39;100990.20;105495;1258;75323;-67
2023/06/06 04:11:45;;;;;;;7.20;3.90;;;;;;;31.98;28.53;100993.66;105073;1256;67088;-65
2023/06/06 04:14:13;;;;;;;6.40;3.70;;;;;;;32.04;27.96;100993.78;105246;1260;72897;-70
2023/06/06 04:16:41;;;;;;;8.50;3.90;;;;;;;32.15;27.85;100986.48;105138;1257;61400;-65
2023/06/06 04:19:08;;;;;;;4.80;3.50;;;;;;;32.20;27.42;100991.36;105214;1257;60079;-69
2023/06/06 04:21:36;;;;;;;8.80;4.00;;;;;;;32.23;27.35;100987.55;105093;1260;74503;-65
2023/06/06 04:24:03;;;;;;;8.20;4.40;;;;;;;32.43;27.26;100988.22;105222;1260;66397;-64
2023/06/06 04:26:31;;;;;;;6.20;3.70;;;;;;;32.71;26.44;100987.42;105136;1260;71406;-66
2023/06/06 04:29:02;;;;;;;5.40;3.20;;;;;;;32.85;26.60;100988.81;105631;1256;61361;-64
2023/06/06 04:31:30;;;;;;;6.00;3.90;;;;;;;33.06;26.31;100987.21;105435;1257;61151;-68
2023/06/06 04:34:00;;;;;;;6.30;3.50;;;;;;;33.43;25.63;100990.30;105164;1256;75442;-65
2023/06/06 04:36:28;;;;;;;8.20;3.30;;;;;;;33.66;25.34;100990.41;105066;1260;67135;-64
2023/06/06 04:39:00;;;;;;;9.10;3.50;;;;;;;33.76;25.13;100992.13;105316;1262;72672;-65
2023/06/06 04:41:31;;;;;;;7.10;3.80;;;;;;;33.80;25.37;100994.56;105363;1258;61346;-73
2023/06/06 04:44:20;;;;;;;5.90;3.60;;;;;;;33.90;24.79;100994.18;105027;1257;60404;-66
2023/06/06 04:46:48;;;;;;;4.30;2.90;;;;;;;33.73;24.43;100990.79;105236;1256;65848;-65
2023/06/06 04:49:15;;;;;;;5.30;3.50;;;;;;;33.48;24.45;100991.61;105535;1258;65684;-67
2023/06/06 04:51:43;;;;;;;6.20;3.10;;;;;;;33.14;24.39;100987.37;105194;1262;72473;-65
2023/06/06 04:54:10;;;;;;;5.30;3.00;;;;;;;32.65;24.88;100984.73;105247;1260;61356;-66
2023/06/06 04:56:40;;;;;;;5.10;3.10;;;;;;;32.32;25.33;100988.65;105086;1257;61616;-64
2023/06/06 04:59:06;;;;;;;5.30;3.10;;;;;;;32.34;25.70;100986.39;105117;1260;74700;-66
2023/06/06 05:01:36;;;;;;;6.50;3.20;;;;;;;32.37;25.40;100986.91;105345;1256;65899;-67
2023/06/06 05:04:03;;;;;;;6.30;3.00;;;;;;;32.30;25.72;100988.35;105033;1260;71858;-71
2023/06/06 05:06:31;;;;;;;5.00;2.90;;;;;;;32.31;25.47;100988.09;105120;1260;61359;-65
2023/06/06 05:09:03;;;;;;;6.30;3.30;;;;;;;32.30;25.50;100992.12;105635;1256;61338;-67
2023/06/06 05:11:30;;;;;;;3.40;2.30;;;;;;;32.13;25.31;100992.24;105295;1260;74720;-65
2023/06/06 05:13:57;;;;;;;3.80;1.80;;;;;;;32.07;24.34;100993.04;105167;1257;67329;-66
2023/06/06 05:16:25;;;;;;;3.80;1.90;;;;;;;32.39;24.10;100993.90;105253;1257;72943;-66
2023/06/06 05:18:52;;;;;;;2.50;1.60;;;;;;;32.89;23.19;100991.41;105142;1260;61267;-65
2023/06/06 05:21:19;;;;;;;3.20;1.70;;;;;;;33.33;22.36;100991.40;105153;1260;61241;-65
2023/06/06 05:23:46;;;;;;;2.70;1.40;;;;;;;33.32;21.55;100988.48;105459;1256;66120;-66
2023/06/06 05:26:13;;;;;;;3.10;1.70;;;;;;;33.19;21.55;100984.55;105513;1256;67367;-68
2023/06/06 05:28:40;;;;;;;3.10;1.60;;;;;;;32.91;21.49;100985.88;105224;1260;72833;-66
2023/06/06 05:31:07;;;;;;;2.60;1.50;;;;;;;32.39;21.97;100983.65;105184;1257;61320;-67
2023/06/06 05:33:39;;;;;;;3.30;1.50;;;;;;;32.12;22.58;100983.20;105448;1257;61138;-66
2023/06/06 05:36:06;;;;;;;2.40;1.40;;;;;;;31.84;22.58;100986.23;105607;1256;73842;-69
2023/06/06 05:38:33;;;;;;;2.50;1.60;;;;;;;31.34;23.01;100980.95;105075;1260;67872;-66
2023/06/06 05:41:00;;;;;;;3.80;1.70;;;;;;;31.14;23.52;100985.96;105370;1256;71230;-68
2023/06/06 05:43:30;;;;;;;4.20;1.90;;;;;;;30.99;23.77;100981.02;105547;1257;61362;-66
2023/06/06 05:45:57;;;;;;;3.80;1.50;;;;;;;31.05;23.92;100982.55;105109;1258;61173;-66
2023/06/06 05:48:24;;;;;;;2.80;1.40;;;;;;;30.85;24.02;100980.02;104956;1261;75349;-66
2023/06/06 05:50:52;;;;;;;3.90;1.60;;;;;;;30.88;24.04;100979.16;105323;1257;66309;-66
2023/06/06 05:53:19;;;;;;;2.80;1.70;;;;;;;31.08;23.77;100974.13;104934;1262;72597;-66
2023/06/06 05:55:46;;;;;;;3.20;1.30;;;;;;;31.43;23.39;100972.93;105675;1257;61334;-66
2023/06/06 05:58:13;;;;;;;4.60;1.60;;;;;;;31.81;23.44;100967.13;105181;1260;61260;-68
2023/06/06 06:00:40;;;;;;;3.10;1.40;;;;;;;32.18;22.91;100962.88;105142;1257;73501;-68
2023/06/06 06:03:08;;;;;;;3.50;1.60;;;;;;;32.50;22.29;100961.35;105209;1256;61229;-65
2023/06/06 06:05:35;;;;;;;3.40;1.30;;;;;;;32.62;21.87;100958.63;105514;1256;63875;-64
2023/06/06 06:08:02;;;;;;;2.80;1.30;;;;;;;32.46;22.06;100956.33;105384;1256;61212;-67
2023/06/06 06:10:31;;;;;;;2.30;1.10;;;;;;;32.11;21.83;100958.23;105133;1256;61131;-64
2023/06/06 06:12:58;;;;;;;1.80;1.20;;;;;;;31.77;22.71;100966.70;105466;1260;74769;-67
2023/06/06 06:15:26;;;;;;;3.00;1.20;;;;;;;31.98;22.48;100964.69;105372;1256;67234;-64
2023/06/06 06:17:54;;;;;;;3.00;1.30;;;;;;;32.12;21.16;100956.70;105326;1260;72661;-67
2023/06/06 06:20:21;;;;;;;2.40;1.20;;;;;;;31.77;21.35;100960.84;105117;1260;61305;-66
2023/06/06 06:22:48;;;;;;;2.50;1.50;;;;;;;31.53;21.40;100960.61;105464;1260;61133;-69
2023/06/06 06:25:19;;;;;;;3.50;1.70;;;;;;;31.22;22.16;100965.80;104905;1260;76320;-66
2023/06/06 06:27:46;;;;;;;1.60;1.10;;;;;;;30.73;22.44;100965.27;105080;1260;67197;-68
2023/06/06 06:30:14;;;;;;;3.10;1.30;;;;;;;30.09;22.77;100960.69;104847;1257;73172;-66
2023/06/06 06:32:43;;;;;;;2.30;1.50;;;;;;;29.68;23.61;100959.93;105437;1256;61314;-68
2023/06/06 06:35:10;;;;;;;3.90;1.70;;;;;;;30.09;23.60;100960.24;105113;1257;61661;-66
2023/06/06 06:37:39;;;;;;;3.30;1.70;;;;;;;30.56;23.36;100962.71;105372;1256;75011;-66
2023/06/06 06:40:09;;;;;;;4.60;1.30;;;;;;;30.91;23.55;100959.27;105157;1256;67318;-67
2023/06/06 06:42:42;;;;;;;2.80;1.40;;;;;;;31.18;23.12;100959.35;104940;1260;72702;-68
2023/06/06 06:45:21;;;;;;;3.40;1.30;;;;;;;31.39;22.13;100953.89;104828;1259;61359;-68
2023/06/06 06:47:48;;;;;;;2.70;1.60;;;;;;;31.70;21.78;100947.80;105487;1256;61116;-72
2023/06/06 06:50:15;;;;;;;3.70;1.60;;;;;;;32.12;21.59;100946.09;105479;1257;74023;-69
2023/06/06 06:52:43;;;;;;;3.90;1.80;;;;;;;32.12;21.70;100943.50;105487;1260;65660;-68
2023/06/06 06:55:10;;;;;;;2.60;1.60;;;;;;;31.84;21.69;100944.12;105441;1260;71345;-70
2023/06/06 06:57:39;;;;;;;2.70;1.30;;;;;;;31.34;22.08;100950.34;105481;1257;61375;-69
2023/06/06 07:00:14;;;;;;;3.80;1.80;;;;;;;31.01;22.09;100945.16;105351;1256;61318;-67
2023/06/06 07:02:42;;;;;;;2.80;1.60;;;;;;;30.57;23.46;100955.04;105990;1256;75027;-67
2023/06/06 07:05:10;;;;;;;3.50;1.50;;;;;;;30.34;23.46;100951.59;104964;1261;65810;-67
2023/06/06 07:07:52;;;;;;;2.60;1.50;;;;;;;30.38;22.86;100950.48;105274;1259;72588;-68
2023/06/06 07:10:22;;;;;;;2.30;1.40;;;;;;;30.52;23.11;100953.11;105474;1256;61336;-67
2023/06/06 07:12:50;;;;;;;2.40;1.60;;;;;;;30.76;22.57;100954.45;105234;1259;61244;-67
2023/06/06 07:15:19;;;;;;;2.80;1.40;;;;;;;30.99;22.00;100951.65;105128;1256;74779;-68
2023/06/06 07:17:51;;;;;;;2.00;1.40;;;;;;;31.12;21.99;100944.31;105199;1256;66375;-71
2023/06/06 07:20:20;;;;;;;3.10;1.30;;;;;;;31.45;21.56;100939.90;105077;1257;72558;-66
2023/06/06 07:22:49;;;;;;;2.60;1.50;;;;;;;31.84;21.51;100940.71;105153;1256;61342;-66
2023/06/06 07:25:17;;;;;;;3.40;1.50;;;;;;;31.74;22.00;100942.04;105244;1256;61256;-66
2023/06/06 07:27:45;;;;;;;4.20;2.70;;;;;;;31.25;23.20;100946.02;105210;1256;75213;-67
2023/06/06 07:30:12;;;;;;;3.30;2.40;;;;;;;31.24;22.69;100947.58;105444;1256;67164;-67
2023/06/06 07:32:45;;;;;;;24.90;22.40;;;;;;;31.36;22.73;100939.86;105183;1259;71215;-66
2023/06/06 07:35:13;;;;;;;7.20;5.50;;;;;;;31.38;22.48;100937.91;105784;1257;61337;-65
2023/06/06 07:37:40;;;;;;;32.40;28.80;;;;;;;31.08;22.82;100939.94;105159;1256;61216;-67
2023/06/06 07:40:08;;;;;;;13.10;11.40;;;;;;;30.78;23.46;100941.23;105375;1259;73456;-67
2023/06/06 07:42:35;;;;;;;17.30;14.00;;;;;;;30.52;23.44;100939.77;105405;1257;66994;-66
2023/06/06 07:45:03;;;;;;;19.40;14.90;;;;;;;30.17;23.49;100937.10;105691;1256;71406;-67
2023/06/06 07:47:30;;;;;;;25.80;18.00;;;;;;;29.79;23.88;100946.31;105215;1257;61574;-66
2023/06/06 07:49:58;;;;;;;18.40;12.10;;;;;;;29.78;23.79;100945.15;105066;1261;63527;-72
2023/06/06 07:52:25;;;;;;;10.10;5.40;;;;;;;30.34;23.79;100946.04;105146;1259;75202;-67
2023/06/06 07:54:52;;;;;;;9.90;5.60;;;;;;;30.75;22.94;100948.56;105374;1259;67084;-67
2023/06/06 07:57:20;;;;;;;19.40;12.40;;;;;;;31.12;22.66;100943.17;105402;1259;72568;-71
2023/06/06 07:59:47;;;;;;;6.40;3.70;;;;;;;31.32;21.70;100942.70;105217;1259;61218;-67
2023/06/06 08:02:14;;;;;;;4.60;3.10;;;;;;;31.14;22.07;100943.66;105729;1257;61227;-67
2023/06/06 08:04:45;;;;;;;4.70;2.50;;;;;;;31.09;22.58;100938.90;105141;1259;75219;-67
2023/06/06 08:07:15;;;;;;;5.70;2.90;;;;;;;31.32;22.58;100934.88;105420;1256;67216;-67
2023/06/06 08:09:42;;;;;;;6.40;3.50;;;;;;;31.16;22.68;100935.45;105440;1261;72970;-67
2023/06/06 08:12:10;;;;;;;17.10;7.40;;;;;;;30.60;23.84;100936.33;105449;1259;61209;-67
2023/06/06 08:14:37;;;;;;;15.90;6.30;;;;;;;30.13;24.03;100937.27;105584;1258;61171;-67
2023/06/06 08:17:05;;;;;;;6.50;3.30;;;;;;;29.80;24.76;100935.22;105581;1256;73569;-67
2023/06/06 08:19:32;;;;;;;4.30;2.60;;;;;;;29.72;24.33;100937.95;105648;1256;67203;-68
2023/06/06 08:22:01;;;;;;;3.10;2.10;;;;;;;29.76;23.84;100933.20;105764;1256;71438;-71
2023/06/06 08:24:29;;;;;;;2.80;1.60;;;;;;;30.06;23.68;100931.11;105683;1260;61250;-68
2023/06/06 08:26:56;;;;;;;3.60;1.60;;;;;;;30.46;23.22;100930.42;105675;1256;61349;-66
2023/06/06 08:29:24;;;;;;;3.50;1.50;;;;;;;30.88;22.71;100926.98;105698;1256;74428;-66
2023/06/06 08:31:53;;;;;;;5.10;1.60;;;;;;;30.97;22.15;100933.59;105387;1256;68349;-66
2023/06/06 08:34:23;;;;;;;4.60;1.60;;;;;;;30.50;22.70;100933.94;105513;1256;73238;-66
2023/06/06 08:36:51;;;;;;;65.20;25.60;;;;;;;29.97;23.19;100932.08;105895;1256;61250;-70
2023/06/06 08:39:21;;;;;;;4.10;2.40;;;;;;;29.55;23.49;100932.46;105561;1256;61135;-69
2023/06/06 08:41:53;;;;;;;6.00;1.90;;;;;;;29.03;23.83;100928.66;105593;1260;74564;-72
2023/06/06 08:44:21;;;;;;;4.20;1.80;;;;;;;28.96;24.25;100930.91;105417;1256;67093;-70
2023/06/06 08:46:50;;;;;;;3.80;2.40;;;;;;;29.17;24.70;100926.23;105450;1256;72703;-69
2023/06/06 08:49:21;;;;;;;3.90;1.90;;;;;;;29.56;24.00;100929.48;105290;1256;61348;-67
2023/06/06 08:51:48;;;;;;;1.80;1.00;;;;;;;29.93;23.48;100920.64;105811;1256;61389;-75
2023/06/06 08:54:19;;;;;;;2.60;1.50;;;;;;;30.45;22.74;100918.13;104907;1261;75171;-70
2023/06/06 08:56:46;;;;;;;3.50;1.60;;;;;;;30.67;22.89;100922.12;106202;1259;68034;-69
2023/06/06 08:59:14;;;;;;;2.70;1.40;;;;;;;30.79;23.63;100920.38;105740;1256;72795;-70
2023/06/06 09:01:41;;;;;;;6.40;1.70;;;;;;;31.00;22.56;100909.81;106402;1256;60398;-70
2023/06/06 09:04:08;;;;;;;3.10;1.50;;;;;;;30.81;22.35;100918.28;104796;1256;61350;-70
2023/06/06 09:06:40;;;;;;;2.40;1.50;;;;;;;30.54;22.24;100918.57;105170;1257;74528;-69
2023/06/06 09:09:09;;;;;;;1.60;1.30;;;;;;;30.30;22.13;100913.38;105355;1257;66366;-67
2023/06/06 09:11:36;;;;;;;2.30;1.20;;;;;;;30.51;22.56;100908.95;105576;1257;71366;-66
2023/06/06 09:14:07;;;;;;;4.50;1.70;;;;;;;30.41;22.67;100906.79;105297;1257;61195;-68
2023/06/06 09:16:34;;;;;;;3.70;1.60;;;;;;;29.93;22.77;100906.83;105230;1256;61135;-67
2023/06/06 09:19:02;;;;;;;3.10;1.40;;;;;;;29.47;22.66;100908.09;105519;1257;74115;-69
2023/06/06 09:21:32;;;;;;;2.90;1.40;;;;;;;29.07;23.06;100904.35;105681;1256;65895;-70
2023/06/06 09:24:00;;;;;;;4.10;1.90;;;;;;;28.68;23.80;100899.81;105468;1256;71739;-70
2023/06/06 09:26:30;;;;;;;5.90;1.40;;;;;;;28.40;25.22;100903.40;105082;1260;61234;-68
2023/06/06 09:28:57;;;;;;;2.80;1.60;;;;;;;28.48;25.87;100899.38;105699;1261;61254;-67
2023/06/06 09:31:27;;;;;;;3.40;1.50;;;;;;;28.78;24.57;100887.40;105175;1257;73179;-69
2023/06/06 09:33:55;;;;;;;2.20;1.30;;;;;;;29.26;24.56;100881.46;105201;1261;67053;-69
2023/06/06 09:36:29;;;;;;;2.40;1.30;;;;;;;29.62;24.61;100887.01;104981;1257;72509;-66
2023/06/06 09:39:12;;;;;;;3.70;1.40;;;;;;;29.77;24.26;100886.36;105127;1260;61363;-67
2023/06/06 09:41:46;;;;;;;2.60;1.50;;;;;;;29.83;23.42;100884.06;105614;1256;61253;-68
2023/06/06 09:44:20;;;;;;;3.30;1.40;;;;;;;29.69;24.20;100883.13;105114;1256;74517;-67
2023/06/06 09:46:48;;;;;;;3.80;1.30;;;;;;;29.75;23.90;100879.79;105358;1256;67796;-67
2023/06/06 09:49:17;;;;;;;1.90;1.30;;;;;;;29.87;23.78;100876.62;106215;1257;72598;-68
2023/06/06 09:51:44;;;;;;;3.10;1.40;;;;;;;30.21;23.60;100872.65;104905;1259;61332;-67
2023/06/06 09:54:11;;;;;;;2.70;1.30;;;;;;;30.61;23.15;100866.60;105267;1256;60052;-65
2023/06/06 09:56:39;;;;;;;3.20;1.50;;;;;;;30.62;23.05;100866.05;105205;1255;73396;-66
2023/06/06 09:59:07;;;;;;;3.30;1.60;;;;;;;30.34;22.81;100872.07;105730;1256;67042;-68
2023/06/06 10:01:37;;;;;;;2.50;1.50;;;;;;;30.13;23.03;100871.94;105370;1256;72529;-68
2023/06/06 10:04:04;;;;;;;3.70;1.70;;;;;;;30.28;23.19;100868.20;105336;1259;61169;-66
2023/06/06 10:06:34;;;;;;;2.00;1.30;;;;;;;30.63;22.75;100868.55;105235;1259;61161;-66
2023/06/06 10:09:04;;;;;;;2.50;1.30;;;;;;;30.63;22.70;100867.59;105473;1255;74652;-66
2023/06/06 10:11:35;;;;;;;4.20;1.80;;;;;;;30.32;23.06;100866.69;106020;1259;68118;-68
2023/06/06 10:14:03;;;;;;;2.30;1.60;;;;;;;30.23;23.12;100868.92;105389;1257;72682;-67
2023/06/06 10:16:31;;;;;;;4.30;1.60;;;;;;;30.18;23.15;100866.49;105386;1256;61218;-66
2023/06/06 10:18:58;;;;;;;2.80;1.40;;;;;;;30.13;22.52;100861.23;105589;1257;61352;-68
2023/06/06 10:21:25;;;;;;;2.30;1.30;;;;;;;30.02;23.33;100853.81;104979;1259;75325;-70
2023/06/06 10:23:53;;;;;;;3.00;1.40;;;;;;;29.88;23.92;100859.46;105134;1257;67891;-67
2023/06/06 10:26:24;;;;;;;2.40;1.60;;;;;;;29.48;24.60;100861.50;105240;1259;72765;-66
2023/06/06 10:28:53;;;;;;;;;;;;;;;29.11;24.32;100852.80;105591;1259;61254;-67
2023/06/06 10:31:31;;;;;;;2.50;1.50;;;;;;;29.02;25.05;100854.77;105192;1259;61380;-69
2023/06/06 10:34:04;;;;;;;2.50;1.20;;;;;;;28.96;24.71;100858.22;105112;1256;73552;-67
2023/06/06 10:36:40;;;;;;;3.10;1.30;;;;;;;28.73;25.21;100857.79;104981;1256;67176;-66
2023/06/06 10:39:17;;;;;;;2.40;1.40;;;;;;;28.50;25.22;100862.77;105514;1256;73252;-70
2023/06/06 10:41:51;;;;;;;6.90;1.80;;;;;;;28.58;24.84;100856.06;105281;1259;61231;-66
2023/06/06 10:44:26;;;;;;;3.50;1.40;;;;;;;28.75;25.56;100856.20;105200;1259;61170;-66
2023/06/06 10:47:20;;;;;;;2.10;1.20;;;;;;;28.93;25.43;100856.77;105459;1260;75310;-70
2023/06/06 10:50:15;;;;;;;2.10;1.20;;;;;;;29.14;24.50;100853.56;105246;1259;66002;-67
2023/06/06 10:52:52;;;;;;;2.20;1.50;;;;;;;29.40;24.34;100856.52;106194;1260;71528;-68
2023/06/06 10:55:25;;;;;;;2.20;1.60;;;;;;;29.27;24.73;100860.45;105862;1257;61380;-66
2023/06/06 10:58:27;;;;;;;2.10;1.40;;;;;;;28.99;24.57;100857.80;105524;1257;61326;-72
2023/06/06 11:00:58;;;;;;;2.20;1.40;;;;;;;28.58;24.76;100853.48;105629;1257;74752;-69
2023/06/06 11:03:39;;;;;;;2.50;1.40;;;;;;;28.34;25.12;100852.76;105372;1260;66683;-70
2023/06/06 11:06:11;;;;;;;3.00;1.40;;;;;;;28.57;25.33;100853.13;105062;1260;71493;-69
2023/06/06 11:08:41;;;;;;;4.90;1.60;;;;;;;29.04;24.63;100852.31;105380;1260;61115;-66
2023/06/06 11:11:26;;;;;;;2.80;1.40;;;;;;;29.47;23.82;100851.67;105275;1256;61358;-70
2023/06/06 11:14:02;;;;;;;2.20;1.40;;;;;;;29.63;24.02;100850.20;105490;1257;75551;-69
2023/06/06 11:16:37;;;;;;;2.40;1.30;;;;;;;29.87;23.93;100851.95;104949;1256;67416;-68
2023/06/06 11:19:14;;;;;;;2.50;1.40;;;;;;;30.06;23.10;100845.13;105182;1256;72718;-68
2023/06/06 11:21:42;;;;;;;2.60;1.60;;;;;;;30.06;22.52;100843.50;105004;1256;61160;-67
2023/06/06 11:24:10;;;;;;;1.80;1.00;;;;;;;29.98;23.01;100845.83;105594;1256;61230;-71
2023/06/06 11:26:38;;;;;;;3.00;1.60;;;;;;;30.06;22.97;100842.72;105081;1259;75467;-68